createdAt,value
2022-12-06T00:01:39.810Z,94376.81
2022-12-06T00:04:09.200Z,94375.69
2022-12-06T00:06:42.892Z,94370.16
2022-12-06T00:09:17.613Z,94370.16
2022-12-06T00:11:44.764Z,94368.31
2022-12-06T00:14:12.232Z,94369.88
2022-12-06T00:16:39.147Z,94369.06
2022-12-06T00:19:06.568Z,94378.06
2022-12-06T00:21:35.822Z,94376.19
2022-12-06T00:24:08.131Z,94370.91
2022-12-06T00:26:37.160Z,94376.47
2022-12-06T00:29:04.841Z,94368.28
2022-12-06T00:31:32.758Z,94372.75
2022-12-06T00:33:59.611Z,94364.56
2022-12-06T00:36:29.368Z,94353.41
2022-12-06T00:38:58.884Z,94351.81
2022-12-06T00:41:25.777Z,94350.47
2022-12-06T00:43:53.585Z,94348.34
2022-12-06T00:46:23.552Z,94350.47
2022-12-06T00:48:51.831Z,94345.97
2022-12-06T00:51:20.556Z,94344.13
2022-12-06T00:53:48.129Z,94343.34
2022-12-06T00:56:15.225Z,94336.72
2022-12-06T00:58:42.606Z,94345.44
2022-12-06T01:01:21.786Z,94342.53
2022-12-06T01:03:53.833Z,94343.34
2022-12-06T01:06:23.572Z,94343.88
2022-12-06T01:08:50.630Z,94345.47
2022-12-06T01:11:18.465Z,94339.91
2022-12-06T01:13:45.141Z,94338.56
2022-12-06T01:16:18.237Z,94331.69
2022-12-06T01:18:46.133Z,94341.72
2022-12-06T01:21:15.745Z,94347.03
2022-12-06T01:23:43.919Z,94347.31
2022-12-06T01:26:31.336Z,94347.28
2022-12-06T01:28:59.721Z,94349.16
2022-12-06T01:31:32.137Z,94349.66
2022-12-06T01:34:02.473Z,94348.34
2022-12-06T01:36:29.102Z,94339.34
2022-12-06T01:38:58.009Z,94340.16
2022-12-06T01:41:27.272Z,94341.50
2022-12-06T01:43:55.370Z,94339.66
2022-12-06T01:46:39.930Z,94341.25
2022-12-06T01:49:08.963Z,94335.44
2022-12-06T01:51:36.270Z,94340.69
2022-12-06T01:54:05.584Z,94339.63
2022-12-06T01:56:32.459Z,94334.34
2022-12-06T01:59:00.300Z,94334.88
2022-12-06T02:01:30.088Z,94335.38
2022-12-06T02:04:00.042Z,94329.59
2022-12-06T02:06:28.297Z,94326.75
2022-12-06T02:08:59.061Z,94322.81
2022-12-06T02:11:29.438Z,94323.84
2022-12-06T02:13:59.533Z,94318.31
2022-12-06T02:16:32.070Z,94320.72
2022-12-06T02:19:10.791Z,94317.53
2022-12-06T02:21:57.129Z,94317.50
2022-12-06T02:24:39.083Z,94318.50
2022-12-06T02:27:27.508Z,94314.25
2022-12-06T02:30:11.056Z,94313.19
2022-12-06T02:32:55.992Z,94326.41
2022-12-06T02:35:28.712Z,94312.13
2022-12-06T02:38:28.347Z,94313.69
2022-12-06T02:41:03.840Z,94309.19
2022-12-06T02:43:42.458Z,94293.84
2022-12-06T02:46:12.251Z,94303.34
2022-12-06T02:48:40.263Z,94303.06
2022-12-06T02:51:11.951Z,94293.00
2022-12-06T02:53:43.791Z,94280.31
2022-12-06T02:56:12.434Z,94290.63
2022-12-06T02:58:39.155Z,94294.34
2022-12-06T03:01:22.256Z,94295.69
2022-12-06T03:03:54.787Z,94290.97
2022-12-06T03:06:40.834Z,94289.41
2022-12-06T03:09:26.446Z,94280.16
2022-12-06T03:12:17.875Z,94282.81
2022-12-06T03:14:53.169Z,94284.66
2022-12-06T03:17:27.960Z,94278.06
2022-12-06T03:20:00.545Z,94279.66
2022-12-06T03:22:39.438Z,94279.44
2022-12-06T03:25:09.122Z,94281.59
2022-12-06T03:27:37.286Z,94278.97
2022-12-06T03:30:08.385Z,94279.25
2022-12-06T03:32:38.231Z,94260.84
2022-12-06T03:35:08.913Z,94277.28
2022-12-06T03:37:40.057Z,94263.84
2022-12-06T03:40:25.862Z,94268.84
2022-12-06T03:42:53.421Z,94268.06
2022-12-06T03:45:23.243Z,94258.28
2022-12-06T03:48:03.020Z,94259.59
2022-12-06T03:50:35.574Z,94259.09
2022-12-06T03:53:02.420Z,94254.59
2022-12-06T03:55:29.065Z,94252.28
2022-12-06T03:57:55.760Z,94254.34
2022-12-06T04:00:22.548Z,94255.97
2022-12-06T04:02:49.218Z,94258.59
2022-12-06T04:05:15.978Z,94249.13
2022-12-06T04:07:42.716Z,94258.88
2022-12-06T04:10:09.710Z,94262.06
2022-12-06T04:12:55.035Z,94239.09
2022-12-06T04:15:23.019Z,94250.19
2022-12-06T04:18:08.146Z,94246.53
2022-12-06T04:20:53.458Z,94244.69
2022-12-06T04:23:21.098Z,94245.22
2022-12-06T04:25:47.963Z,94241.22
2022-12-06T04:28:33.164Z,94239.63
2022-12-06T04:31:22.112Z,94228.28
2022-12-06T04:34:09.009Z,94222.97
2022-12-06T04:36:55.859Z,94219.00
2022-12-06T04:39:22.553Z,94224.50
2022-12-06T04:42:08.217Z,94220.50
2022-12-06T04:44:35.019Z,94220.72
2022-12-06T04:47:02.193Z,94224.41
2022-12-06T04:49:28.858Z,94236.28
2022-12-06T04:51:55.880Z,94225.69
2022-12-06T04:54:23.717Z,94228.63
2022-12-06T04:56:50.572Z,94219.88
2022-12-06T04:59:17.674Z,94219.34
2022-12-06T05:01:44.579Z,94219.09
2022-12-06T05:04:11.275Z,94212.50
2022-12-06T05:06:38.040Z,94208.53
2022-12-06T05:09:04.890Z,94219.63
2022-12-06T05:11:31.945Z,94222.28
2022-12-06T05:13:59.331Z,94214.38
2022-12-06T05:16:26.258Z,94219.72
2022-12-06T05:18:53.026Z,94224.75
2022-12-06T05:21:22.823Z,94218.72
2022-12-06T05:23:49.966Z,94228.19
2022-12-06T05:26:19.228Z,94222.91
2022-12-06T05:28:47.457Z,94230.56
2022-12-06T05:31:14.778Z,94220.00
2022-12-06T05:33:41.685Z,94216.31
2022-12-06T05:36:10.089Z,94205.75
2022-12-06T05:38:37.012Z,94214.75
2022-12-06T05:41:04.987Z,94209.50
2022-12-06T05:43:32.105Z,94203.44
2022-12-06T05:45:59.420Z,94218.47
2022-12-06T05:48:26.682Z,94212.88
2022-12-06T05:50:53.806Z,94218.22
2022-12-06T05:53:21.286Z,94218.97
2022-12-06T05:55:48.738Z,94216.84
2022-12-06T05:58:16.144Z,94220.53
2022-12-06T06:00:46.821Z,94220.53
2022-12-06T06:03:13.817Z,94217.63
2022-12-06T06:05:50.072Z,94210.50
2022-12-06T06:08:17.693Z,94219.22
2022-12-06T06:10:45.262Z,94218.41
2022-12-06T06:13:12.333Z,94208.88
2022-12-06T06:15:39.040Z,94198.34
2022-12-06T06:18:05.799Z,94212.06
2022-12-06T06:20:32.627Z,94208.88
2022-12-06T06:22:59.277Z,94215.16
2022-12-06T06:25:26.250Z,94210.19
2022-12-06T06:27:53.198Z,94207.28
2022-12-06T06:30:19.926Z,94210.66
2022-12-06T06:32:46.658Z,94216.47
2022-12-06T06:35:13.386Z,94206.75
2022-12-06T06:37:40.070Z,94210.38
2022-12-06T06:40:07.491Z,94219.84
2022-12-06T06:42:34.134Z,94217.22
2022-12-06T06:45:00.807Z,94210.88
2022-12-06T06:47:27.501Z,94221.91
2022-12-06T06:49:54.157Z,94219.84
2022-12-06T06:52:20.871Z,94216.44
2022-12-06T06:54:47.508Z,94205.59
2022-12-06T06:57:17.783Z,94215.38
2022-12-06T06:59:45.648Z,94209.75
2022-12-06T07:02:17.441Z,94213.97
2022-12-06T07:04:45.074Z,94217.13
2022-12-06T07:07:16.472Z,94213.72
2022-12-06T07:09:46.081Z,94225.59
2022-12-06T07:12:13.484Z,94217.91
2022-12-06T07:14:40.203Z,94212.38
2022-12-06T07:17:07.040Z,94217.41
2022-12-06T07:19:33.742Z,94223.22
2022-12-06T07:22:00.472Z,94228.22
2022-12-06T07:24:27.133Z,94222.44
2022-12-06T07:26:56.786Z,94225.59
2022-12-06T07:29:23.561Z,94236.69
2022-12-06T07:31:50.229Z,94225.34
2022-12-06T07:34:16.899Z,94225.84
2022-12-06T07:36:43.571Z,94215.53
2022-12-06T07:39:14.533Z,94211.59
2022-12-06T07:42:00.057Z,94215.00
2022-12-06T07:45:01.566Z,94218.69
2022-12-06T07:47:37.522Z,94217.63
2022-12-06T07:50:09.470Z,94212.88
2022-12-06T07:52:38.748Z,94208.66
2022-12-06T07:55:07.300Z,94217.66
2022-12-06T07:57:37.357Z,94210.00
2022-12-06T08:00:09.907Z,94206.56
2022-12-06T08:02:39.495Z,94206.28
2022-12-06T08:05:06.379Z,94211.03
2022-12-06T08:07:33.174Z,94205.22
2022-12-06T08:10:00.421Z,94200.16
2022-12-06T08:12:32.162Z,94209.06
2022-12-06T08:14:59.908Z,94212.47
2022-12-06T08:17:27.906Z,94213.03
2022-12-06T08:19:54.716Z,94209.84
2022-12-06T08:22:21.600Z,94212.44
2022-12-06T08:24:48.330Z,94219.81
2022-12-06T08:27:15.405Z,94211.88
2022-12-06T08:29:45.141Z,94205.81
2022-12-06T08:32:12.088Z,94211.63
2022-12-06T08:34:38.786Z,94212.66
2022-12-06T08:37:05.470Z,94216.56
2022-12-06T08:39:32.106Z,94219.44
2022-12-06T08:41:58.784Z,94216.00
2022-12-06T08:44:29.499Z,94219.69
2022-12-06T08:46:57.837Z,94222.84
2022-12-06T08:49:25.376Z,94215.97
2022-12-06T08:51:52.962Z,94210.34
2022-12-06T08:54:22.835Z,94216.41
2022-12-06T08:56:50.904Z,94209.34
2022-12-06T08:59:18.173Z,94215.94
2022-12-06T09:01:45.700Z,94222.22
2022-12-06T09:04:13.165Z,94228.28
2022-12-06T09:06:42.342Z,94227.72
2022-12-06T09:09:11.230Z,94226.94
2022-12-06T09:11:39.800Z,94224.00
2022-12-06T09:14:09.195Z,94225.31
2022-12-06T09:16:36.402Z,94223.97
2022-12-06T09:19:03.648Z,94223.22
2022-12-06T09:21:30.769Z,94224.56
2022-12-06T09:23:58.116Z,94228.00
2022-12-06T09:26:25.941Z,94224.78
2022-12-06T09:28:55.444Z,94226.06
2022-12-06T09:31:22.947Z,94228.34
2022-12-06T09:33:49.737Z,94227.53
2022-12-06T09:36:24.072Z,94226.69
2022-12-06T09:38:56.585Z,94221.38
2022-12-06T09:41:48.168Z,94226.16
2022-12-06T09:45:12.220Z,94214.50
2022-12-06T09:48:08.322Z,94216.84
2022-12-06T09:50:53.654Z,94225.78
2022-12-06T09:53:52.228Z,94220.44
2022-12-06T09:56:47.635Z,94216.47
2022-12-06T09:59:26.903Z,94220.19
2022-12-06T10:02:02.975Z,94220.44
2022-12-06T10:04:41.925Z,94216.06
2022-12-06T10:07:14.451Z,94215.91
2022-12-06T10:09:59.209Z,94213.91
2022-12-06T10:12:28.929Z,94218.13
2022-12-06T10:15:14.394Z,94217.25
2022-12-06T10:17:53.262Z,94208.25
2022-12-06T10:20:41.028Z,94200.00
2022-12-06T10:23:14.020Z,94199.41
2022-12-06T10:25:56.895Z,94195.88
2022-12-06T10:28:55.951Z,94190.53
2022-12-06T10:31:27.507Z,94199.22
2022-12-06T10:34:11.341Z,94194.41
2022-12-06T10:36:44.780Z,94190.31
2022-12-06T10:39:22.561Z,94190.25
2022-12-06T10:42:06.426Z,94191.09
2022-12-06T10:44:45.256Z,94192.16
2022-12-06T10:47:19.061Z,94182.94
2022-12-06T10:50:22.425Z,94186.88
2022-12-06T10:52:57.264Z,94193.53
2022-12-06T10:55:34.800Z,94194.78
2022-12-06T10:58:19.664Z,94192.06
2022-12-06T11:00:56.203Z,94194.72
2022-12-06T11:03:31.734Z,94193.38
2022-12-06T11:06:07.592Z,94196.25
2022-12-06T11:08:41.300Z,94189.28
2022-12-06T11:11:18.506Z,94192.44
2022-12-06T11:13:49.743Z,94185.84
2022-12-06T11:16:22.282Z,94173.75
2022-12-06T11:18:50.107Z,94175.09
2022-12-06T11:21:43.638Z,94173.25
2022-12-06T11:24:28.777Z,94172.47
2022-12-06T11:27:04.668Z,94175.53
2022-12-06T11:29:31.648Z,94178.41
2022-12-06T11:32:07.543Z,94178.63
2022-12-06T11:34:47.213Z,94182.06
2022-12-06T11:37:20.504Z,94170.47
2022-12-06T11:39:51.515Z,94172.75
2022-12-06T11:42:24.033Z,94175.13
2022-12-06T11:45:00.578Z,94168.53
2022-12-06T11:47:27.306Z,94180.66
2022-12-06T11:49:55.596Z,94171.06
2022-12-06T11:52:30.332Z,94168.97
2022-12-06T11:55:02.401Z,94168.97
2022-12-06T11:57:37.133Z,94169.25
2022-12-06T12:00:13.431Z,94166.25
2022-12-06T12:02:41.894Z,94166.41
2022-12-06T12:05:17.821Z,94171.25
2022-12-06T12:07:48.433Z,94165.22
2022-12-06T12:10:38.351Z,94155.63
2022-12-06T12:13:29.897Z,94159.00
2022-12-06T12:16:00.871Z,94148.47
2022-12-06T12:18:34.956Z,94146.03
2022-12-06T12:21:02.944Z,94142.88
2022-12-06T12:23:34.334Z,94146.09
2022-12-06T12:26:19.437Z,94150.19
2022-12-06T12:29:06.386Z,94150.25
2022-12-06T12:31:33.392Z,94150.03
2022-12-06T12:34:20.362Z,94146.59
2022-12-06T12:36:53.820Z,94147.22
2022-12-06T12:39:39.733Z,94142.22
2022-12-06T12:42:33.881Z,94139.78
2022-12-06T12:45:04.305Z,94146.13
2022-12-06T12:47:32.734Z,94141.44
2022-12-06T12:50:15.512Z,94147.22
2022-12-06T12:52:42.427Z,94149.09
2022-12-06T12:55:27.674Z,94144.34
2022-12-06T12:57:57.370Z,94143.28
2022-12-06T13:00:26.476Z,94142.13
2022-12-06T13:03:07.837Z,94142.94
2022-12-06T13:05:46.680Z,94138.97
2022-12-06T13:08:22.194Z,94151.22
2022-12-06T13:10:58.442Z,94143.06
2022-12-06T13:13:30.514Z,94147.56
2022-12-06T13:16:01.300Z,94144.19
2022-12-06T13:18:38.545Z,94148.97
2022-12-06T13:21:24.497Z,94145.53
2022-12-06T13:24:10.276Z,94147.41
2022-12-06T13:26:44.720Z,94145.25
2022-12-06T13:29:28.932Z,94143.69
2022-12-06T13:31:59.733Z,94136.00
2022-12-06T13:34:41.422Z,94138.94
2022-12-06T13:37:26.992Z,94134.50
2022-12-06T13:39:54.131Z,94129.56
2022-12-06T13:42:29.834Z,94132.72
2022-12-06T13:45:01.824Z,94131.91
2022-12-06T13:47:28.466Z,94134.28
2022-12-06T13:50:00.147Z,94130.06
2022-12-06T13:52:42.061Z,94128.53
2022-12-06T13:55:26.730Z,94127.50
2022-12-06T13:58:16.374Z,94117.72
2022-12-06T14:00:43.037Z,94123.25
2022-12-06T14:03:19.039Z,94130.13
2022-12-06T14:06:01.132Z,94127.97
2022-12-06T14:08:44.088Z,94131.47
2022-12-06T14:11:17.190Z,94121.44
2022-12-06T14:13:46.721Z,94127.50
2022-12-06T14:16:22.587Z,94127.50
2022-12-06T14:18:50.420Z,94129.66
2022-12-06T14:21:40.983Z,94140.75
2022-12-06T14:24:29.039Z,94137.31
2022-12-06T14:27:13.969Z,94131.78
2022-12-06T14:29:42.238Z,94135.03
2022-12-06T14:32:09.433Z,94139.53
2022-12-06T14:34:37.134Z,94133.38
2022-12-06T14:37:19.827Z,94133.38
2022-12-06T14:39:52.415Z,94128.88
2022-12-06T14:42:39.293Z,94132.28
2022-12-06T14:45:13.727Z,94128.16
2022-12-06T14:47:40.976Z,94131.41
2022-12-06T14:50:53.994Z,94135.63
2022-12-06T14:53:38.120Z,94138.81
2022-12-06T14:56:07.520Z,94129.31
2022-12-06T14:58:42.880Z,94133.03
2022-12-06T15:01:22.942Z,94133.81
2022-12-06T15:04:07.409Z,94128.53
2022-12-06T15:06:35.901Z,94128.06
2022-12-06T15:09:02.601Z,94132.78
2022-12-06T15:11:48.031Z,94139.66
2022-12-06T15:14:22.981Z,94138.34
2022-12-06T15:17:17.865Z,94126.28
2022-12-06T15:19:47.752Z,94131.56
2022-12-06T15:22:25.365Z,94129.75
2022-12-06T15:24:57.786Z,94124.47
2022-12-06T15:27:27.074Z,94119.16
2022-12-06T15:29:54.185Z,94127.38
2022-12-06T15:32:23.758Z,94129.50
2022-12-06T15:34:50.450Z,94124.78
2022-12-06T15:40:04.637Z,94120.78
2022-12-06T15:42:31.571Z,94122.59
2022-12-06T15:44:58.209Z,94116.75
2022-12-06T15:47:24.926Z,94119.97
2022-12-06T15:49:53.338Z,94123.66
2022-12-06T15:52:24.951Z,94119.72
2022-12-06T15:54:52.297Z,94118.69
2022-12-06T15:57:19.084Z,94116.09
2022-12-06T15:59:45.766Z,94112.38
2022-12-06T16:02:15.571Z,94118.47
2022-12-06T16:04:43.162Z,94115.03
2022-12-06T16:07:10.765Z,94116.59
2022-12-06T16:09:37.963Z,94121.19
2022-12-06T16:12:04.969Z,94120.94
2022-12-06T16:14:31.590Z,94126.22
2022-12-06T16:16:58.232Z,94129.94
2022-12-06T16:19:44.910Z,94137.59
2022-12-06T16:22:11.574Z,94127.81
2022-12-06T16:24:38.198Z,94133.09
2022-12-06T16:27:04.864Z,94128.59
2022-12-06T16:29:31.524Z,94129.16
2022-12-06T16:31:58.366Z,94134.97
2022-12-06T16:34:25.232Z,94135.53
2022-12-06T16:37:09.033Z,94128.66
2022-12-06T16:39:35.794Z,94136.09
2022-12-06T16:42:04.838Z,94132.41
2022-12-06T16:44:31.956Z,94131.63
2022-12-06T16:46:58.941Z,94138.22
2022-12-06T16:49:45.699Z,94135.06
2022-12-06T16:52:13.542Z,94134.59
2022-12-06T16:54:41.566Z,94126.41
2022-12-06T16:57:10.109Z,94129.31
2022-12-06T16:59:37.079Z,94134.84
2022-12-06T17:02:07.273Z,94134.28
2022-12-06T17:04:38.310Z,94141.41
2022-12-06T17:07:04.984Z,94131.13
2022-12-06T17:09:31.764Z,94127.75
2022-12-06T17:12:06.370Z,94136.19
2022-12-06T17:14:33.226Z,94140.72
2022-12-06T17:17:03.952Z,94139.97
2022-12-06T17:19:31.930Z,94144.19
2022-12-06T17:21:59.466Z,94141.03
2022-12-06T17:24:26.851Z,94137.59
2022-12-06T17:26:55.193Z,94134.91
2022-12-06T17:29:23.644Z,94135.22
2022-12-06T17:31:51.278Z,94141.56
2022-12-06T17:34:19.383Z,94139.72
2022-12-06T17:36:47.179Z,94125.81
2022-12-06T17:39:16.596Z,94129.47
2022-12-06T17:42:01.943Z,94136.63
2022-12-06T17:44:28.662Z,94132.13
2022-12-06T17:46:56.026Z,94136.09
2022-12-06T17:49:24.726Z,94132.16
2022-12-06T17:51:51.793Z,94138.53
2022-12-06T17:54:19.581Z,94141.69
2022-12-06T17:56:50.896Z,94137.47
2022-12-06T17:59:20.567Z,94139.56
2022-12-06T18:04:34.905Z,94140.38
2022-12-06T18:07:01.663Z,94143.00
2022-12-06T18:09:28.321Z,94135.88
2022-12-06T18:11:55.776Z,94136.16
2022-12-06T18:14:22.730Z,94138.53
2022-12-06T18:16:49.529Z,94143.00
2022-12-06T18:19:18.478Z,94144.59
2022-12-06T18:21:45.770Z,94145.94
2022-12-06T18:24:24.630Z,94148.06
2022-12-06T18:26:53.450Z,94138.59
2022-12-06T18:29:23.001Z,94143.63
2022-12-06T18:31:51.286Z,94142.31
2022-12-06T18:34:18.531Z,94144.09
2022-12-06T18:36:45.267Z,94144.69
2022-12-06T18:39:16.152Z,94135.44
2022-12-06T18:41:46.257Z,94147.25
2022-12-06T18:44:13.666Z,94146.75
2022-12-06T18:46:42.578Z,94144.69
2022-12-06T18:49:11.855Z,94149.16
2022-12-06T18:51:39.050Z,94147.53
2022-12-06T18:54:06.815Z,94147.50
2022-12-06T18:56:34.715Z,94149.88
2022-12-06T18:59:04.356Z,94155.44
2022-12-06T19:01:33.827Z,94145.13
2022-12-06T19:04:05.351Z,94150.75
2022-12-06T19:06:37.209Z,94151.81
2022-12-06T19:09:10.181Z,94151.81
2022-12-06T19:11:42.821Z,94155.47
2022-12-06T19:14:10.258Z,94148.31
2022-12-06T19:16:38.676Z,94153.34
2022-12-06T19:19:12.834Z,94145.97
2022-12-06T19:21:43.911Z,94149.63
2022-12-06T19:24:12.641Z,94148.31
2022-12-06T19:26:39.974Z,94150.94
2022-12-06T19:29:06.691Z,94152.25
2022-12-06T19:31:33.655Z,94139.34
2022-12-06T19:34:00.573Z,94141.19
2022-12-06T19:36:29.260Z,94145.41
2022-12-06T19:39:00.698Z,94131.19
2022-12-06T19:41:28.007Z,94134.84
2022-12-06T19:44:13.311Z,94127.94
2022-12-06T19:46:42.733Z,94132.44
2022-12-06T19:49:10.432Z,94137.28
2022-12-06T19:51:42.564Z,94132.28
2022-12-06T19:54:10.754Z,94131.78
2022-12-06T19:56:39.311Z,94133.88
2022-12-06T19:59:11.704Z,94128.34
2022-12-06T20:01:43.905Z,94130.72
2022-12-06T20:04:16.319Z,94134.19
2022-12-06T20:06:42.985Z,94139.72
2022-12-06T20:09:10.147Z,94127.56
2022-12-06T20:12:07.465Z,94123.06
2022-12-06T20:14:38.013Z,94133.41
2022-12-06T20:17:08.273Z,94134.44
2022-12-06T20:19:35.090Z,94136.81
2022-12-06T20:22:02.072Z,94132.59
2022-12-06T20:24:28.924Z,94132.81
2022-12-06T20:26:56.284Z,94144.44
2022-12-06T20:29:23.278Z,94153.91
2022-12-06T20:31:51.485Z,94158.63
2022-12-06T20:34:18.904Z,94146.25
2022-12-06T20:36:45.736Z,94157.56
2022-12-06T20:39:19.433Z,94151.22
2022-12-06T20:41:46.876Z,94155.44
2022-12-06T20:44:14.209Z,94154.66
2022-12-06T20:46:40.965Z,94152.53
2022-12-06T20:49:07.727Z,94155.97
2022-12-06T20:51:34.589Z,94150.66
2022-12-06T20:54:05.005Z,94165.94
2022-12-06T20:56:39.090Z,94162.75
2022-12-06T20:59:07.417Z,94164.66
2022-12-06T21:01:37.136Z,94164.38
2022-12-06T21:04:03.988Z,94172.00
2022-12-06T21:06:30.729Z,94164.34
2022-12-06T21:08:57.454Z,94162.44
2022-12-06T21:11:25.255Z,94155.28
2022-12-06T21:13:53.738Z,94158.00
2022-12-06T21:16:26.498Z,94165.13
2022-12-06T21:19:00.901Z,94164.81
2022-12-06T21:21:32.371Z,94169.03
2022-12-06T21:24:03.210Z,94165.88
2022-12-06T21:26:31.190Z,94166.38
2022-12-06T21:28:58.404Z,94163.22
2022-12-06T21:31:30.379Z,94159.00
2022-12-06T21:33:58.043Z,94155.81
2022-12-06T21:36:25.420Z,94155.28
2022-12-06T21:38:52.682Z,94157.41
2022-12-06T21:41:19.521Z,94156.16
2022-12-06T21:43:46.428Z,94150.84
2022-12-06T21:46:24.802Z,94162.44
2022-12-06T21:48:56.479Z,94161.66
2022-12-06T21:51:25.392Z,94164.25
2022-12-06T21:53:52.653Z,94161.34
2022-12-06T21:56:27.300Z,94165.88
2022-12-06T21:58:54.463Z,94162.72
2022-12-06T22:01:28.190Z,94173.53
2022-12-06T22:03:58.081Z,94169.06
2022-12-06T22:06:25.799Z,94174.91
2022-12-06T22:09:01.551Z,94176.00
2022-12-06T22:11:29.835Z,94171.78
2022-12-06T22:13:58.984Z,94166.53
2022-12-06T22:16:26.249Z,94173.59
2022-12-06T22:18:55.278Z,94179.34
2022-12-06T22:21:28.017Z,94183.31
2022-12-06T22:23:58.262Z,94177.22
2022-12-06T22:26:28.392Z,94181.69
2022-12-06T22:28:55.587Z,94188.56
2022-12-06T22:31:25.092Z,94181.19
2022-12-06T22:33:52.753Z,94178.56
2022-12-06T22:36:21.178Z,94180.41
2022-12-06T22:38:50.500Z,94183.03
2022-12-06T22:41:19.527Z,94176.97
2022-12-06T22:43:50.645Z,94177.19
2022-12-06T22:46:17.702Z,94179.84
2022-12-06T22:48:44.933Z,94171.13
2022-12-06T22:51:16.404Z,94174.28
2022-12-06T22:53:46.036Z,94174.56
2022-12-06T22:56:13.859Z,94172.72
2022-12-06T22:58:41.395Z,94166.94
2022-12-06T23:01:19.287Z,94173.28
2022-12-06T23:03:47.729Z,94175.88
2022-12-06T23:06:17.058Z,94174.81
2022-12-06T23:08:44.477Z,94166.94
2022-12-06T23:11:20.099Z,94173.78
2022-12-06T23:13:47.905Z,94172.19
2022-12-06T23:16:17.621Z,94168.47
2022-12-06T23:18:45.095Z,94169.78
2022-12-06T23:21:14.699Z,94175.06
2022-12-06T23:23:44.398Z,94176.66
2022-12-06T23:26:16.648Z,94164.22
2022-12-06T23:28:44.293Z,94164.78
2022-12-06T23:31:14.322Z,94166.88
2022-12-06T23:33:42.148Z,94172.44
2022-12-06T23:36:20.598Z,94160.25
2022-12-06T23:38:47.588Z,94154.16
2022-12-06T23:41:26.360Z,94164.47
2022-12-06T23:43:54.258Z,94157.09
2022-12-06T23:46:24.289Z,94160.75
2022-12-06T23:48:52.025Z,94162.38
2022-12-06T23:51:21.180Z,94156.84
2022-12-06T23:53:52.805Z,94153.94
2022-12-06T23:56:21.508Z,94157.88
2022-12-06T23:58:50.541Z,94146.25
